createdAt,value
2018-06-02T00:01:45.750Z,17.90
2018-06-02T00:04:14.233Z,17.80
2018-06-02T00:06:42.719Z,17.80
2018-06-02T00:09:10.427Z,17.80
2018-06-02T00:11:38.945Z,17.80
2018-06-02T00:14:07.426Z,17.90
2018-06-02T00:16:35.145Z,17.80
2018-06-02T00:19:02.850Z,17.80
2018-06-02T00:21:30.620Z,17.80
2018-06-02T00:23:58.284Z,17.80
2018-06-02T00:26:26.049Z,17.80
2018-06-02T00:28:54.539Z,17.90
2018-06-02T00:31:23.049Z,18.00
2018-06-02T00:33:50.778Z,17.90
2018-06-02T00:36:19.292Z,17.80
2018-06-02T00:38:46.977Z,17.80
2018-06-02T00:41:14.693Z,17.70
2018-06-02T00:43:43.152Z,17.80
2018-06-02T00:46:10.905Z,17.80
2018-06-02T00:48:38.614Z,17.90
2018-06-02T00:51:07.130Z,17.90
2018-06-02T00:53:35.131Z,17.90
2018-06-02T00:56:02.848Z,18.00
2018-06-02T00:58:30.565Z,18.00
2018-06-02T01:00:58.267Z,18.00
2018-06-02T01:03:25.958Z,18.00
2018-06-02T01:05:53.652Z,18.00
2018-06-02T01:08:22.599Z,18.10
2018-06-02T01:10:51.036Z,18.00
2018-06-02T01:13:18.774Z,18.00
2018-06-02T01:15:46.482Z,17.80
2018-06-02T01:18:14.235Z,17.90
2018-06-02T01:20:42.708Z,17.60
2018-06-02T01:23:10.439Z,17.60
2018-06-02T01:25:38.130Z,17.60
2018-06-02T01:28:05.835Z,17.70
2018-06-02T01:30:33.522Z,17.70
2018-06-02T01:33:01.251Z,17.80
2018-06-02T01:35:29.730Z,17.80
2018-06-02T01:37:57.456Z,17.80
2018-06-02T01:40:25.160Z,17.90
2018-06-02T01:42:53.667Z,17.80
2018-06-02T01:45:21.405Z,17.80
2018-06-02T01:47:49.884Z,17.70
2018-06-02T01:50:18.349Z,17.80
2018-06-02T01:52:46.062Z,17.80
2018-06-02T01:55:13.772Z,17.80
2018-06-02T01:57:41.486Z,17.80
2018-06-02T02:00:09.797Z,18.00
2018-06-02T02:02:38.095Z,18.10
2018-06-02T02:05:06.343Z,18.00
2018-06-02T02:07:34.653Z,18.00
2018-06-02T02:10:02.963Z,17.90
2018-06-02T02:12:32.000Z,17.50
2018-06-02T02:15:00.417Z,17.50
2018-06-02T02:17:29.484Z,17.30
2018-06-02T02:19:57.765Z,17.30
2018-06-02T02:22:26.039Z,17.20
2018-06-02T02:24:54.316Z,17.20
2018-06-02T02:27:22.583Z,17.10
2018-06-02T02:29:50.856Z,17.20
2018-06-02T02:32:19.159Z,17.20
2018-06-02T02:34:47.446Z,17.20
2018-06-02T02:37:15.728Z,17.20
2018-06-02T02:39:43.987Z,17.20
2018-06-02T02:42:12.259Z,17.20
2018-06-02T02:44:41.381Z,17.10
2018-06-02T02:47:09.655Z,17.10
2018-06-02T02:49:37.928Z,17.10
2018-06-02T02:52:06.970Z,17.10
2018-06-02T02:54:35.309Z,17.10
2018-06-02T02:57:03.534Z,17.10
2018-06-02T02:59:31.843Z,17.00
2018-06-02T03:02:00.093Z,17.00
2018-06-02T03:04:29.094Z,16.90
2018-06-02T03:06:57.359Z,16.90
2018-06-02T03:09:25.622Z,16.90
2018-06-02T03:11:53.896Z,17.00
2018-06-02T03:14:22.177Z,17.00
2018-06-02T03:16:50.565Z,17.00
2018-06-02T03:19:19.074Z,17.00
2018-06-02T03:21:47.319Z,17.00
2018-06-02T03:24:15.596Z,17.00
2018-06-02T03:26:44.180Z,16.80
2018-06-02T03:29:13.200Z,16.90
2018-06-02T03:31:41.609Z,16.90
2018-06-02T03:34:11.388Z,16.90
2018-06-02T03:36:39.667Z,16.90
2018-06-02T03:39:07.933Z,16.80
2018-06-02T03:41:36.198Z,16.90
2018-06-02T03:44:05.273Z,16.80
2018-06-02T03:46:34.991Z,16.80
2018-06-02T03:49:04.033Z,16.80
2018-06-02T03:51:32.303Z,16.80
2018-06-02T03:54:01.335Z,16.90
2018-06-02T03:56:29.595Z,16.90
2018-06-02T03:58:57.859Z,16.80
2018-06-02T04:01:26.148Z,16.80
2018-06-02T04:03:54.405Z,16.90
2018-06-02T04:06:22.688Z,17.00
2018-06-02T04:08:50.944Z,17.00
2018-06-02T04:11:19.414Z,17.10
2018-06-02T04:13:48.426Z,17.30
2018-06-02T04:16:16.678Z,17.30
2018-06-02T04:18:45.725Z,17.30
2018-06-02T04:21:14.000Z,17.30
2018-06-02T04:23:42.268Z,17.20
2018-06-02T04:26:10.517Z,17.10
2018-06-02T04:28:39.561Z,17.20
2018-06-02T04:31:07.882Z,17.20
2018-06-02T04:33:36.929Z,17.10
2018-06-02T04:36:05.235Z,17.10
2018-06-02T04:38:33.488Z,17.10
2018-06-02T04:41:01.765Z,17.10
2018-06-02T04:43:30.028Z,17.10
2018-06-02T04:45:58.326Z,17.10
2018-06-02T04:48:26.904Z,17.10
2018-06-02T04:50:55.183Z,17.10
2018-06-02T04:53:23.398Z,17.00
2018-06-02T04:55:52.445Z,17.10
2018-06-02T04:58:20.660Z,17.10
2018-06-02T05:00:49.684Z,17.00
2018-06-02T05:03:17.946Z,17.00
2018-06-02T05:05:46.972Z,17.10
2018-06-02T05:08:15.232Z,17.10
2018-06-02T05:10:44.261Z,17.10
2018-06-02T05:13:12.516Z,17.00
2018-06-02T05:15:40.814Z,17.10
2018-06-02T05:18:09.056Z,17.10
2018-06-02T05:20:38.083Z,17.10
2018-06-02T05:23:06.395Z,17.10
2018-06-02T05:25:34.628Z,17.10
2018-06-02T05:28:03.305Z,17.10
2018-06-02T05:30:31.612Z,17.20
2018-06-02T05:32:59.837Z,17.20
2018-06-02T05:35:28.887Z,17.40
2018-06-02T05:37:57.138Z,17.40
2018-06-02T05:40:24.960Z,17.40
2018-06-02T05:42:53.085Z,17.50
2018-06-02T05:45:20.928Z,17.70
2018-06-02T05:47:48.616Z,17.70
2018-06-02T05:50:16.311Z,17.70
2018-06-02T05:52:44.021Z,17.70
2018-06-02T05:55:12.504Z,17.90
2018-06-02T05:57:40.222Z,17.90
2018-06-02T06:00:07.953Z,18.00
2018-06-02T06:02:36.419Z,18.10
2018-06-02T06:05:05.380Z,18.10
2018-06-02T06:07:33.286Z,18.10
2018-06-02T06:10:00.992Z,18.20
2018-06-02T06:12:28.687Z,18.20
2018-06-02T06:14:56.403Z,18.30
2018-06-02T06:17:24.110Z,18.30
2018-06-02T06:19:51.815Z,18.40
2018-06-02T06:22:19.520Z,18.40
2018-06-02T06:24:47.220Z,18.50
2018-06-02T06:27:15.838Z,18.80
2018-06-02T06:29:43.523Z,18.80
2018-06-02T06:32:11.251Z,18.80
2018-06-02T06:34:38.949Z,18.90
2018-06-02T06:37:06.714Z,19.10
2018-06-02T06:39:34.414Z,19.30
2018-06-02T06:42:02.129Z,19.50
2018-06-02T06:44:29.890Z,19.70
2018-06-02T06:46:57.555Z,19.80
2018-06-02T06:49:25.248Z,19.90
2018-06-02T06:51:53.012Z,19.80
2018-06-02T06:54:21.201Z,19.90
2018-06-02T06:56:49.026Z,20.00
2018-06-02T06:59:16.720Z,19.60
2018-06-02T07:01:44.467Z,19.60
2018-06-02T07:04:12.167Z,19.30
2018-06-02T07:06:39.858Z,19.20
2018-06-02T07:09:08.357Z,19.40
2018-06-02T07:11:36.845Z,19.50
2018-06-02T07:14:04.557Z,19.50
2018-06-02T07:16:32.424Z,19.40
2018-06-02T07:19:00.104Z,19.60
2018-06-02T07:21:27.805Z,19.70
2018-06-02T07:23:55.522Z,19.70
2018-06-02T07:26:23.243Z,19.70
2018-06-02T07:28:50.955Z,19.80
2018-06-02T07:31:18.703Z,19.90
2018-06-02T07:33:46.382Z,19.60
2018-06-02T07:36:14.101Z,19.50
2018-06-02T07:38:41.805Z,19.50
2018-06-02T07:41:09.524Z,19.50
2018-06-02T07:43:37.265Z,19.40
2018-06-02T07:46:05.732Z,19.40
2018-06-02T07:48:34.246Z,19.40
2018-06-02T07:51:01.929Z,19.40
2018-06-02T07:53:29.653Z,19.40
2018-06-02T07:55:58.119Z,19.60
2018-06-02T07:58:26.717Z,19.90
2018-06-02T08:00:54.440Z,19.90
2018-06-02T08:03:22.160Z,20.00
2018-06-02T08:05:49.850Z,19.90
2018-06-02T08:08:17.591Z,20.00
2018-06-02T08:10:45.290Z,19.90
2018-06-02T08:13:13.029Z,19.90
2018-06-02T08:15:41.514Z,19.70
2018-06-02T08:18:09.994Z,19.80
2018-06-02T08:20:37.727Z,19.80
2018-06-02T08:23:05.452Z,20.00
2018-06-02T08:25:33.177Z,19.90
2018-06-02T08:28:01.307Z,19.80
2018-06-02T08:30:29.012Z,19.80
2018-06-02T08:32:56.747Z,19.70
2018-06-02T08:35:24.441Z,19.70
2018-06-02T08:37:52.167Z,19.90
2018-06-02T08:40:19.905Z,20.10
2018-06-02T08:42:48.839Z,19.80
2018-06-02T08:45:16.695Z,19.80
2018-06-02T08:47:44.482Z,19.90
2018-06-02T08:50:13.252Z,19.80
2018-06-02T08:52:41.027Z,19.80
2018-06-02T08:55:08.750Z,20.10
2018-06-02T08:57:36.443Z,20.50
2018-06-02T09:00:04.217Z,20.50
2018-06-02T09:02:32.000Z,20.20
2018-06-02T09:05:00.524Z,20.50
2018-06-02T09:07:29.839Z,20.40
2018-06-02T09:09:57.738Z,20.40
2018-06-02T09:12:26.014Z,20.30
2018-06-02T09:14:54.032Z,20.60
2018-06-02T09:17:22.799Z,20.80
2018-06-02T09:19:50.699Z,20.90
2018-06-02T09:22:19.544Z,20.70
2018-06-02T09:24:47.614Z,20.70
2018-06-02T09:27:16.881Z,20.40
2018-06-02T09:29:44.564Z,20.40
2018-06-02T09:32:12.280Z,20.50
2018-06-02T09:34:39.996Z,20.70
2018-06-02T09:37:08.270Z,20.60
2018-06-02T09:39:37.058Z,20.50
2018-06-02T09:42:04.719Z,20.50
2018-06-02T09:44:32.465Z,20.10
2018-06-02T09:47:00.181Z,20.10
2018-06-02T09:49:28.664Z,20.00
2018-06-02T09:51:56.396Z,20.00
2018-06-02T09:54:24.120Z,20.20
2018-06-02T09:56:51.821Z,20.60
2018-06-02T09:59:19.572Z,20.90
2018-06-02T10:01:47.302Z,21.20
2018-06-02T10:04:15.046Z,21.20
2018-06-02T10:06:42.721Z,21.20
2018-06-02T10:09:10.440Z,21.00
2018-06-02T10:11:38.188Z,20.80
2018-06-02T10:14:05.931Z,20.40
2018-06-02T10:16:34.155Z,20.40
2018-06-02T10:19:01.936Z,20.30
2018-06-02T10:21:29.672Z,20.40
2018-06-02T10:23:57.428Z,20.60
2018-06-02T10:26:25.107Z,20.60
2018-06-02T10:28:52.872Z,20.60
2018-06-02T10:31:20.561Z,20.80
2018-06-02T10:33:48.721Z,21.20
2018-06-02T10:36:16.448Z,21.60
2018-06-02T10:38:44.211Z,21.70
2018-06-02T10:41:11.901Z,21.70
2018-06-02T10:43:39.656Z,22.10
2018-06-02T10:46:07.377Z,22.20
2018-06-02T10:48:35.913Z,21.30
2018-06-02T10:51:03.619Z,21.30
2018-06-02T10:53:31.332Z,21.20
2018-06-02T10:55:59.055Z,21.40
2018-06-02T10:58:26.791Z,21.60
2018-06-02T11:00:54.485Z,22.00
2018-06-02T11:03:22.186Z,22.00
2018-06-02T11:05:49.883Z,22.10
2018-06-02T11:08:17.590Z,22.10
2018-06-02T11:10:45.362Z,22.10
2018-06-02T11:13:13.819Z,21.50
2018-06-02T11:15:42.334Z,21.30
2018-06-02T11:18:10.024Z,21.30
2018-06-02T11:20:38.385Z,21.40
2018-06-02T11:23:06.168Z,21.40
2018-06-02T11:25:33.877Z,21.30
2018-06-02T11:28:02.350Z,21.40
2018-06-02T11:30:30.098Z,21.40
2018-06-02T11:32:57.829Z,21.60
2018-06-02T11:35:25.571Z,21.70
2018-06-02T11:37:54.050Z,22.00
2018-06-02T11:40:21.797Z,22.00
2018-06-02T11:42:49.483Z,22.40
2018-06-02T11:45:18.099Z,22.60
2018-06-02T11:47:45.857Z,22.70
2018-06-02T11:50:13.642Z,22.60
2018-06-02T11:52:41.382Z,22.70
2018-06-02T11:55:09.615Z,22.60
2018-06-02T11:57:38.085Z,22.90
2018-06-02T12:00:05.807Z,22.90
2018-06-02T12:02:33.598Z,22.80
2018-06-02T12:05:01.298Z,23.00
2018-06-02T12:07:29.818Z,23.30
2018-06-02T12:09:58.572Z,23.20
2018-06-02T12:12:26.366Z,23.20
2018-06-02T12:14:54.159Z,22.90
2018-06-02T12:17:21.857Z,22.90
2018-06-02T12:19:50.375Z,22.20
2018-06-02T12:22:18.089Z,22.20
2018-06-02T12:24:45.832Z,22.00
2018-06-02T12:27:13.524Z,22.10
2018-06-02T12:29:41.280Z,22.30
2018-06-02T12:32:09.001Z,22.80
2018-06-02T12:34:36.748Z,23.30
2018-06-02T12:37:05.222Z,24.20
2018-06-02T12:39:33.184Z,24.10
2018-06-02T12:42:01.664Z,24.30
2018-06-02T12:44:29.381Z,24.30
2018-06-02T12:46:57.104Z,24.20
2018-06-02T12:49:25.575Z,23.20
2018-06-02T12:51:54.006Z,23.20
2018-06-02T12:54:21.721Z,22.90
2018-06-02T12:56:49.434Z,23.00
2018-06-02T12:59:17.133Z,23.10
2018-06-02T13:01:44.945Z,23.00
2018-06-02T13:04:12.682Z,22.80
2018-06-02T13:06:41.252Z,23.00
2018-06-02T13:09:08.942Z,23.00
2018-06-02T13:11:36.686Z,23.30
2018-06-02T13:14:04.368Z,23.70
2018-06-02T13:16:32.892Z,23.50
2018-06-02T13:19:00.596Z,23.50
2018-06-02T13:21:29.097Z,23.40
2018-06-02T13:23:57.576Z,23.50
2018-06-02T13:26:26.102Z,23.50
2018-06-02T13:28:53.834Z,23.50
2018-06-02T13:31:22.359Z,23.30
2018-06-02T13:33:50.080Z,23.20
2018-06-02T13:36:18.594Z,22.80
2018-06-02T13:38:46.276Z,22.80
2018-06-02T13:41:14.038Z,22.50
2018-06-02T13:43:41.730Z,22.80
2018-06-02T13:46:09.468Z,23.00
2018-06-02T13:48:37.177Z,22.90
2018-06-02T13:51:04.915Z,22.90
2018-06-02T13:53:32.628Z,23.10
2018-06-02T13:56:00.370Z,22.80
2018-06-02T13:58:28.097Z,22.90
2018-06-02T14:00:55.830Z,22.70
2018-06-02T14:03:23.528Z,22.50
2018-06-02T14:05:51.255Z,22.60
2018-06-02T14:08:18.979Z,22.40
2018-06-02T14:10:46.693Z,22.40
2018-06-02T14:13:14.462Z,22.70
2018-06-02T14:15:42.164Z,23.10
2018-06-02T14:18:09.912Z,23.50
2018-06-02T14:20:38.488Z,23.60
2018-06-02T14:23:06.198Z,23.60
2018-06-02T14:25:34.694Z,23.00
2018-06-02T14:28:02.541Z,23.00
2018-06-02T14:30:30.241Z,23.00
2018-06-02T14:32:58.719Z,22.50
2018-06-02T14:35:26.441Z,22.40
2018-06-02T14:37:54.220Z,22.40
2018-06-02T14:40:21.884Z,22.50
2018-06-02T14:42:49.688Z,22.70
2018-06-02T14:45:17.383Z,22.80
2018-06-02T14:47:45.142Z,22.90
2018-06-02T14:50:12.870Z,23.00
2018-06-02T14:52:41.336Z,23.00
2018-06-02T14:55:09.085Z,23.00
2018-06-02T14:57:36.788Z,22.90
2018-06-02T15:00:04.547Z,22.80
2018-06-02T15:02:32.279Z,22.80
2018-06-02T15:04:59.996Z,22.80
2018-06-02T15:07:27.686Z,23.00
2018-06-02T15:09:55.374Z,22.90
2018-06-02T15:12:23.085Z,23.10
2018-06-02T15:14:51.326Z,23.50
2018-06-02T15:17:19.054Z,23.30
2018-06-02T15:19:46.738Z,23.70
2018-06-02T15:22:14.444Z,24.00
2018-06-02T15:24:42.177Z,23.70
2018-06-02T15:27:09.897Z,23.50
2018-06-02T15:29:37.623Z,23.00
2018-06-02T15:32:05.349Z,22.80
2018-06-02T15:34:34.066Z,22.90
2018-06-02T15:37:02.545Z,23.00
2018-06-02T15:39:31.019Z,22.90
2018-06-02T15:41:58.713Z,22.90
2018-06-02T15:44:26.471Z,23.00
2018-06-02T15:46:55.688Z,22.80
2018-06-02T15:49:23.491Z,22.80
2018-06-02T15:51:51.200Z,23.00
2018-06-02T15:54:19.675Z,22.70
2018-06-02T15:56:47.391Z,22.70
2018-06-02T15:59:15.151Z,22.60
2018-06-02T16:01:42.841Z,22.50
2018-06-02T16:04:10.650Z,22.30
2018-06-02T16:06:38.341Z,22.20
2018-06-02T16:09:06.212Z,22.10
2018-06-02T16:11:34.418Z,22.20
2018-06-02T16:14:02.151Z,22.40
2018-06-02T16:16:29.848Z,22.50
2018-06-02T16:18:57.612Z,22.50
2018-06-02T16:21:25.328Z,22.50
2018-06-02T16:23:53.046Z,22.60
2018-06-02T16:26:20.765Z,22.70
2018-06-02T16:28:48.485Z,22.50
2018-06-02T16:31:16.952Z,22.90
2018-06-02T16:33:44.713Z,22.90
2018-06-02T16:36:12.407Z,23.10
2018-06-02T16:38:40.917Z,23.10
2018-06-02T16:41:08.626Z,23.10
2018-06-02T16:43:36.437Z,23.10
2018-06-02T16:46:04.185Z,22.90
2018-06-02T16:48:33.445Z,22.80
2018-06-02T16:51:01.149Z,22.80
2018-06-02T16:53:29.651Z,22.60
2018-06-02T16:55:57.400Z,22.60
2018-06-02T16:58:26.072Z,22.80
2018-06-02T17:00:53.775Z,22.80
2018-06-02T17:03:21.483Z,22.90
2018-06-02T17:05:49.231Z,23.20
2018-06-02T17:08:16.946Z,23.40
2018-06-02T17:10:44.720Z,23.10
2018-06-02T17:13:13.219Z,22.90
2018-06-02T17:15:41.010Z,22.90
2018-06-02T17:18:08.695Z,22.90
2018-06-02T17:20:37.683Z,22.60
2018-06-02T17:23:05.606Z,22.60
2018-06-02T17:25:33.369Z,22.50
2018-06-02T17:28:01.103Z,22.30
2018-06-02T17:30:29.029Z,22.40
2018-06-02T17:32:57.095Z,22.40
2018-06-02T17:35:24.828Z,22.40
2018-06-02T17:37:53.320Z,22.10
2018-06-02T17:40:21.059Z,22.10
2018-06-02T17:42:50.523Z,22.00
2018-06-02T17:45:18.367Z,22.00
2018-06-02T17:47:46.097Z,22.10
2018-06-02T17:50:13.832Z,22.20
2018-06-02T17:52:41.559Z,22.30
2018-06-02T17:55:09.303Z,22.30
2018-06-02T17:57:37.795Z,22.30
2018-06-02T18:00:06.479Z,22.50
2018-06-02T18:02:34.963Z,22.70
2018-06-02T18:05:03.462Z,22.80
2018-06-02T18:07:31.208Z,22.70
2018-06-02T18:09:59.781Z,22.80
2018-06-02T18:12:28.293Z,22.70
2018-06-02T18:14:56.033Z,22.60
2018-06-02T18:17:23.761Z,22.60
2018-06-02T18:19:51.487Z,22.50
2018-06-02T18:22:19.971Z,22.40
2018-06-02T18:24:47.711Z,22.30
2018-06-02T18:27:17.408Z,22.10
2018-06-02T18:29:45.836Z,22.10
2018-06-02T18:32:13.651Z,21.90
2018-06-02T18:34:41.365Z,21.90
2018-06-02T18:37:09.098Z,22.00
2018-06-02T18:39:38.138Z,22.00
2018-06-02T18:42:05.829Z,22.00
2018-06-02T18:44:33.573Z,21.80
2018-06-02T18:47:01.278Z,21.60
2018-06-02T18:49:29.794Z,21.40
2018-06-02T18:51:57.500Z,21.40
2018-06-02T18:54:26.334Z,21.30
2018-06-02T18:56:54.809Z,21.20
2018-06-02T18:59:22.531Z,21.20
2018-06-02T19:01:50.261Z,21.20
2018-06-02T19:04:17.964Z,21.10
2018-06-02T19:06:46.176Z,21.00
2018-06-02T19:09:13.881Z,20.90
2018-06-02T19:11:41.623Z,20.70
2018-06-02T19:14:09.331Z,20.70
2018-06-02T19:16:37.093Z,20.50
2018-06-02T19:19:04.922Z,20.30
2018-06-02T19:21:33.460Z,20.10
2018-06-02T19:24:01.174Z,20.10
2018-06-02T19:26:28.897Z,20.10
2018-06-02T19:28:56.580Z,20.00
2018-06-02T19:31:25.073Z,20.10
2018-06-02T19:33:53.106Z,20.10
2018-06-02T19:36:20.824Z,20.10
2018-06-02T19:38:48.548Z,20.20
2018-06-02T19:41:16.315Z,20.20
2018-06-02T19:43:44.166Z,20.10
2018-06-02T19:46:11.909Z,20.10
2018-06-02T19:48:39.612Z,20.20
2018-06-02T19:51:08.236Z,20.00
2018-06-02T19:53:35.961Z,19.90
2018-06-02T19:56:04.530Z,19.90
2018-06-02T19:58:32.302Z,19.90
2018-06-02T20:00:59.995Z,19.90
2018-06-02T20:03:28.474Z,19.90
2018-06-02T20:05:57.127Z,19.70
2018-06-02T20:08:24.824Z,19.70
2018-06-02T20:10:53.342Z,19.50
2018-06-02T20:13:21.141Z,19.50
2018-06-02T20:15:48.856Z,19.40
2018-06-02T20:18:16.632Z,19.30
2018-06-02T20:20:44.321Z,19.20
2018-06-02T20:23:12.070Z,19.20
2018-06-02T20:25:39.816Z,19.10
2018-06-02T20:28:08.349Z,18.80
2018-06-02T20:30:36.076Z,18.80
2018-06-02T20:33:03.818Z,18.70
2018-06-02T20:35:32.300Z,18.50
2018-06-02T20:38:00.804Z,18.40
2018-06-02T20:40:28.551Z,18.40
2018-06-02T20:42:56.301Z,18.40
2018-06-02T20:45:23.988Z,18.30
2018-06-02T20:47:52.504Z,18.20
2018-06-02T20:50:20.212Z,18.20
2018-06-02T20:52:47.952Z,18.20
2018-06-02T20:55:15.815Z,18.30
2018-06-02T20:57:43.580Z,18.30
2018-06-02T21:00:11.330Z,18.20
2018-06-02T21:02:39.119Z,18.10
2018-06-02T21:05:06.868Z,18.00
2018-06-02T21:07:34.620Z,18.00
2018-06-02T21:10:02.966Z,18.10
2018-06-02T21:12:31.864Z,17.90
2018-06-02T21:14:59.683Z,17.90
2018-06-02T21:17:27.472Z,17.80
2018-06-02T21:19:55.962Z,17.70
2018-06-02T21:22:24.519Z,17.60
2018-06-02T21:24:52.317Z,17.60
2018-06-02T21:27:20.767Z,17.50
2018-06-02T21:29:48.536Z,17.50
2018-06-02T21:32:16.273Z,17.40
2018-06-02T21:34:43.999Z,17.40
2018-06-02T21:37:11.738Z,17.30
2018-06-02T21:39:39.424Z,17.20
2018-06-02T21:42:07.161Z,17.20
2018-06-02T21:44:35.365Z,17.10
2018-06-02T21:49:32.044Z,17.00
2018-06-02T21:51:59.780Z,17.00
2018-06-02T21:54:27.444Z,16.90
2018-06-02T21:56:55.967Z,16.90
2018-06-02T21:59:23.694Z,16.90
2018-06-02T22:01:52.231Z,16.90
2018-06-02T22:04:20.470Z,16.90
2018-06-02T22:06:48.386Z,16.90
2018-06-02T22:09:16.168Z,16.90
2018-06-02T22:11:44.769Z,16.90
2018-06-02T22:14:13.293Z,16.90
2018-06-02T22:16:41.030Z,16.80
2018-06-02T22:19:08.783Z,16.80
2018-06-02T22:21:37.274Z,16.70
2018-06-02T22:24:05.773Z,16.80
2018-06-02T22:26:33.502Z,16.70
2018-06-02T22:29:01.861Z,16.80
2018-06-02T22:31:30.257Z,16.80
2018-06-02T22:33:57.994Z,16.80
2018-06-02T22:36:25.705Z,16.90
2018-06-02T22:38:54.231Z,16.80
2018-06-02T22:41:21.940Z,16.80
2018-06-02T22:43:49.680Z,16.70
2018-06-02T22:46:17.347Z,16.60
2018-06-02T22:48:45.124Z,16.60
2018-06-02T22:51:12.853Z,16.50
2018-06-02T22:53:40.573Z,16.50
2018-06-02T22:56:09.053Z,16.50
2018-06-02T22:58:36.765Z,16.50
2018-06-02T23:01:04.472Z,16.40
2018-06-02T23:03:31.995Z,16.40
2018-06-02T23:05:59.504Z,16.40
2018-06-02T23:08:27.787Z,16.30
2018-06-02T23:10:56.031Z,16.30
2018-06-02T23:13:23.553Z,16.30
2018-06-02T23:15:51.220Z,16.30
2018-06-02T23:18:18.733Z,16.20
2018-06-02T23:20:46.231Z,16.10
2018-06-02T23:23:13.765Z,16.10
2018-06-02T23:25:42.040Z,16.20
2018-06-02T23:28:10.334Z,16.20
2018-06-02T23:30:38.585Z,16.20
2018-06-02T23:33:06.221Z,16.20
2018-06-02T23:35:33.723Z,16.20
2018-06-02T23:38:02.006Z,16.20
2018-06-02T23:40:30.298Z,16.30
2018-06-02T23:42:57.880Z,16.30
2018-06-02T23:45:26.101Z,16.20
2018-06-02T23:47:53.636Z,16.20
2018-06-02T23:50:21.199Z,16.20
2018-06-02T23:52:48.866Z,16.10
2018-06-02T23:55:17.252Z,16.10
2018-06-02T23:57:44.729Z,16.10
